Time;durP1;ratioP1;P1;durP2;ratioP2;P2;SDS_P1;SDS_P2;PMS_P1;PMS_P2;Temp;Humidity;BMP_temperature;BMP_pressure;BME280_temperature;BME280_humidity;BME280_pressure;Samples;Min_cycle;Max_cycle;Signal;HPM_P1;HPM_P2
2023/07/31 00:01:02;;;;;;;1.77;1.13;;;;;;;13.45;93.94;99352.88;5046476;28;20025;-64
2023/07/31 00:03:27;;;;;;;1.35;0.88;;;;;;;13.44;94.26;99354.63;5046787;28;20120;-64
2023/07/31 00:05:53;;;;;;;1.40;0.88;;;;;;;13.44;94.35;99352.00;5029858;28;20553;-65
2023/07/31 00:08:18;;;;;;;0.93;0.73;;;;;;;13.41;94.08;99353.88;5047161;28;20492;-65
2023/07/31 00:10:43;;;;;;;1.05;0.95;;;;;;;13.42;94.36;99351.19;5047613;28;20029;-65
2023/07/31 00:13:09;;;;;;;1.13;0.65;;;;;;;13.40;94.25;99350.44;5047171;28;20069;-63
2023/07/31 00:15:34;;;;;;;1.48;0.98;;;;;;;13.38;94.40;99352.25;5047362;28;20017;-64
2023/07/31 00:18:01;;;;;;;3.40;1.00;;;;;;;13.33;94.73;99347.19;5029296;28;20425;-64
2023/07/31 00:20:26;;;;;;;1.95;1.33;;;;;;;13.32;94.63;99348.09;5047216;28;20034;-64
2023/07/31 00:22:52;;;;;;;1.55;1.05;;;;;;;13.32;94.93;99344.66;5047116;28;20071;-65
2023/07/31 00:25:17;;;;;;;2.40;1.15;;;;;;;13.30;94.84;99343.84;5047066;28;20025;-64
2023/07/31 00:27:44;;;;;;;6.30;1.17;;;;;;;13.16;94.56;99328.72;5047123;28;20033;-64
2023/07/31 00:30:10;;;;;;;1.02;0.68;;;;;;;13.29;94.87;99348.19;5029512;28;20488;-64
2023/07/31 00:32:36;;;;;;;1.27;0.90;;;;;;;13.26;95.37;99348.31;5046485;28;20120;-63
2023/07/31 00:35:01;;;;;;;2.22;1.00;;;;;;;13.38;95.36;99352.25;5046809;28;20104;-64
2023/07/31 00:37:27;;;;;;;1.65;0.93;;;;;;;13.44;95.06;99348.53;5047028;28;20052;-64
2023/07/31 00:39:52;;;;;;;1.55;1.00;;;;;;;13.48;94.49;99337.09;5046947;28;20033;-64
2023/07/31 00:42:18;;;;;;;6.53;1.88;;;;;;;13.47;94.03;99340.59;5046850;28;20350;-64
2023/07/31 00:44:43;;;;;;;0.95;0.80;;;;;;;13.46;94.06;99338.91;5047024;28;20029;-64
2023/07/31 00:47:08;;;;;;;0.63;0.50;;;;;;;13.46;94.24;99338.91;5046487;28;20434;-63
2023/07/31 00:49:34;;;;;;;2.53;1.13;;;;;;;13.44;93.98;99333.75;5046805;28;20378;-63
2023/07/31 00:52:00;;;;;;;1.40;0.93;;;;;;;13.42;94.05;99332.97;5046719;28;20064;-64
2023/07/31 00:54:26;;;;;;;1.13;0.90;;;;;;;13.36;93.98;99331.44;5046709;28;20026;-64
2023/07/31 00:56:53;;;;;;;1.10;0.75;;;;;;;13.30;93.77;99334.28;5046273;28;20037;-63
2023/07/31 00:59:18;;;;;;;3.08;1.38;;;;;;;13.29;94.00;99332.56;5046383;28;20025;-64
2023/07/31 01:01:44;;;;;;;3.03;1.13;;;;;;;13.24;94.30;99331.91;5046491;28;20095;-64
2023/07/31 01:04:10;;;;;;;1.80;1.42;;;;;;;13.20;94.15;99325.09;5046656;28;20018;-64
2023/07/31 01:06:54;;;;;;;0.70;0.65;;;;;;;13.19;94.40;99333.81;5046409;28;20047;-64
2023/07/31 01:09:24;;;;;;;3.05;1.10;;;;;;;13.16;94.60;99337.41;5046330;28;20027;-64
2023/07/31 01:11:53;;;;;;;1.63;1.05;;;;;;;13.13;94.61;99333.13;5046446;28;20028;-64
2023/07/31 01:14:18;;;;;;;0.98;0.75;;;;;;;13.09;94.67;99331.56;5045994;28;20049;-63
2023/07/31 01:16:44;;;;;;;3.58;1.25;;;;;;;13.07;94.90;99327.28;5046262;28;20030;-63
2023/07/31 01:19:11;;;;;;;7.00;1.38;;;;;;;13.03;95.17;99329.16;5046036;28;20048;-64
2023/07/31 01:22:04;;;;;;;1.58;0.80;;;;;;;13.00;95.59;99324.06;5045681;28;20232;-64
2023/07/31 01:24:41;;;;;;;1.75;1.13;;;;;;;12.98;95.41;99323.28;5046205;28;20037;-63
2023/07/31 01:27:14;;;;;;;1.10;0.98;;;;;;;12.96;95.39;99325.06;5046136;28;20161;-63
2023/07/31 01:29:42;;;;;;;1.30;0.93;;;;;;;12.94;95.81;99319.09;5046050;28;20021;-64
2023/07/31 01:32:09;;;;;;;1.77;0.93;;;;;;;12.91;95.78;99312.22;5045664;28;20055;-64
2023/07/31 01:34:35;;;;;;;2.05;0.90;;;;;;;12.88;96.00;99312.31;5045930;28;20018;-64
2023/07/31 01:37:02;;;;;;;1.60;1.00;;;;;;;12.87;96.04;99311.50;5027993;28;20049;-64
2023/07/31 01:39:28;;;;;;;4.38;1.33;;;;;;;12.87;96.29;99303.69;5045668;28;20087;-63
2023/07/31 01:41:53;;;;;;;2.00;1.00;;;;;;;12.87;96.03;99295.00;5045897;28;20021;-63
2023/07/31 01:44:19;;;;;;;1.35;1.02;;;;;;;12.87;96.35;99301.06;5045189;28;20025;-64
2023/07/31 01:46:44;;;;;;;1.42;0.75;;;;;;;12.76;96.26;99287.59;5045769;28;20390;-63
2023/07/31 01:49:10;;;;;;;1.80;1.00;;;;;;;12.83;96.41;99302.06;5045618;28;20017;-64
2023/07/31 01:51:35;;;;;;;1.30;0.93;;;;;;;12.83;96.59;99304.69;5045628;28;20049;-64
2023/07/31 01:54:01;;;;;;;3.75;1.08;;;;;;;12.84;96.68;99297.72;5045445;28;20025;-63
2023/07/31 01:56:27;;;;;;;1.45;1.17;;;;;;;12.85;96.70;99291.59;5045541;28;20038;-64
2023/07/31 01:58:52;;;;;;;2.22;1.15;;;;;;;12.84;96.69;99293.34;5045332;28;20116;-64
2023/07/31 02:01:18;;;;;;;3.47;1.23;;;;;;;12.83;97.10;99291.66;5043913;28;20045;-64
2023/07/31 02:03:43;;;;;;;0.82;0.80;;;;;;;12.87;97.40;99285.44;5044645;28;20026;-63
2023/07/31 02:06:08;;;;;;;0.73;0.73;;;;;;;12.93;97.22;99284.34;5045498;28;20017;-64
2023/07/31 02:08:34;;;;;;;1.35;1.13;;;;;;;12.94;96.92;99290.44;5045357;28;20029;-64
2023/07/31 02:10:59;;;;;;;1.33;0.82;;;;;;;12.92;97.18;99274.00;5045274;28;20048;-64
2023/07/31 02:13:25;;;;;;;1.45;0.98;;;;;;;12.93;97.28;99279.16;5045223;28;20097;-63
2023/07/31 02:15:50;;;;;;;2.33;0.90;;;;;;;12.93;96.95;99280.91;5045216;28;20049;-64
2023/07/31 02:18:16;;;;;;;1.77;1.13;;;;;;;12.91;96.96;99280.94;5045125;28;20018;-63
2023/07/31 02:20:41;;;;;;;1.77;1.20;;;;;;;12.92;96.96;99279.22;5045121;28;20029;-64
2023/07/31 02:23:07;;;;;;;1.88;0.77;;;;;;;12.90;96.94;99284.47;5044957;28;20494;-64
2023/07/31 02:25:32;;;;;;;4.93;1.15;;;;;;;12.85;97.19;99271.63;5045278;28;20029;-64
2023/07/31 02:27:58;;;;;;;0.80;0.70;;;;;;;12.82;97.13;99263.06;5045037;28;20017;-64
2023/07/31 02:30:23;;;;;;;4.38;1.48;;;;;;;12.85;96.95;99279.44;5045262;28;20029;-64
2023/07/31 02:32:49;;;;;;;3.00;1.35;;;;;;;12.83;97.09;99273.41;5044921;28;20099;-64
2023/07/31 02:35:15;;;;;;;1.70;1.13;;;;;;;12.81;96.86;99277.00;5045490;28;20448;-63
2023/07/31 02:37:41;;;;;;;2.30;1.20;;;;;;;12.79;97.02;99271.84;5044991;28;20053;-64
2023/07/31 02:40:07;;;;;;;3.15;1.05;;;;;;;12.81;96.96;99277.81;5045283;28;20040;-64
2023/07/31 02:42:33;;;;;;;5.28;1.65;;;;;;;12.86;97.26;99283.72;5045180;28;20030;-64
2023/07/31 02:44:58;;;;;;;4.20;1.35;;;;;;;12.89;97.01;99274.97;5045084;28;20032;-64
2023/07/31 02:47:24;;;;;;;2.22;1.27;;;;;;;12.91;96.80;99282.72;5044881;28;20022;-64
2023/07/31 02:49:49;;;;;;;1.73;1.00;;;;;;;12.88;96.64;99275.84;5045130;28;20133;-64
2023/07/31 02:52:14;;;;;;;2.08;1.00;;;;;;;12.87;96.96;99275.03;5045192;28;20026;-64
2023/07/31 02:54:40;;;;;;;3.45;1.02;;;;;;;12.85;97.01;99265.56;5045248;28;20018;-63
2023/07/31 02:57:05;;;;;;;6.75;1.23;;;;;;;12.82;97.45;99270.88;5049043;28;20052;-63
2023/07/31 02:59:31;;;;;;;8.55;1.27;;;;;;;12.76;97.67;99256.31;5048886;28;20027;-63
2023/07/31 03:01:56;;;;;;;4.53;0.93;;;;;;;12.85;97.71;99265.56;5048179;28;20045;-64
2023/07/31 03:04:21;;;;;;;3.33;1.35;;;;;;;12.87;97.68;99267.22;5048994;28;20018;-64
2023/07/31 03:06:47;;;;;;;0.80;0.77;;;;;;;12.88;98.00;99266.31;5048981;28;20156;-64
2023/07/31 03:09:12;;;;;;;3.70;1.42;;;;;;;12.85;98.26;99262.94;5049005;28;20025;-63
2023/07/31 03:11:37;;;;;;;1.88;1.25;;;;;;;12.88;98.08;99274.13;5048823;28;20389;-63
2023/07/31 03:14:03;;;;;;;2.97;1.00;;;;;;;12.88;98.25;99265.44;5048197;28;20509;-63
2023/07/31 03:16:28;;;;;;;4.45;1.23;;;;;;;12.90;98.51;99266.25;5048229;28;20029;-63
2023/07/31 03:18:54;;;;;;;2.47;1.38;;;;;;;12.92;98.38;99259.22;5048495;28;20020;-64
2023/07/31 03:21:20;;;;;;;1.67;1.10;;;;;;;12.96;98.57;99262.56;5048749;28;20029;-63
2023/07/31 03:23:45;;;;;;;6.63;1.55;;;;;;;12.98;98.14;99260.75;5048475;28;20032;-64
2023/07/31 03:26:11;;;;;;;7.20;1.95;;;;;;;12.97;98.30;99265.09;5048435;28;20029;-64
2023/07/31 03:28:36;;;;;;;3.03;1.30;;;;;;;12.95;98.42;99250.44;5048595;28;20017;-64
2023/07/31 03:31:02;;;;;;;1.00;0.88;;;;;;;12.99;98.59;99257.22;5048371;28;20052;-64
2023/07/31 03:33:27;;;;;;;3.25;1.77;;;;;;;13.00;98.71;99258.94;5048213;28;20116;-64
2023/07/31 03:35:53;;;;;;;2.03;1.15;;;;;;;13.01;98.70;99250.22;5048197;28;20021;-65
2023/07/31 03:38:19;;;;;;;4.97;1.67;;;;;;;13.05;98.73;99253.56;5048009;28;20070;-63
2023/07/31 03:40:44;;;;;;;3.20;1.40;;;;;;;13.06;98.81;99256.09;5048052;28;20095;-64
2023/07/31 03:43:10;;;;;;;2.28;1.27;;;;;;;13.11;98.79;99256.78;5048063;28;20108;-64
2023/07/31 03:45:36;;;;;;;7.10;1.10;;;;;;;13.11;98.90;99256.78;5048412;28;20089;-65
2023/07/31 03:48:02;;;;;;;10.02;1.48;;;;;;;13.13;98.79;99260.16;5047877;28;20090;-64
2023/07/31 03:50:27;;;;;;;1.65;1.00;;;;;;;13.12;98.75;99253.28;5048016;28;20033;-64
2023/07/31 03:52:52;;;;;;;4.43;1.90;;;;;;;13.04;98.89;99236.22;5047951;28;20104;-65
2023/07/31 03:55:18;;;;;;;1.63;1.30;;;;;;;13.10;98.98;99251.63;5048005;28;20032;-64
2023/07/31 03:57:43;;;;;;;7.30;1.50;;;;;;;13.11;98.75;99251.56;5047847;28;20048;-64
2023/07/31 04:00:10;;;;;;;2.80;1.30;;;;;;;13.09;98.76;99242.97;5047739;28;20034;-64
2023/07/31 04:02:35;;;;;;;1.85;1.70;;;;;;;13.12;98.69;99250.66;5047569;28;20041;-65
2023/07/31 04:05:00;;;;;;;5.50;1.70;;;;;;;13.17;98.92;99254.84;5047887;28;20024;-65
2023/07/31 04:07:26;;;;;;;3.75;1.40;;;;;;;13.18;98.88;99246.13;5047127;28;20052;-64
2023/07/31 04:09:51;;;;;;;3.40;1.40;;;;;;;13.20;98.86;99250.38;5029654;28;20112;-64
2023/07/31 04:12:17;;;;;;;2.50;1.55;;;;;;;13.23;98.79;99255.47;5047737;28;20033;-65
2023/07/31 04:14:42;;;;;;;1.98;1.70;;;;;;;13.19;99.46;99253.03;5047370;28;20041;-64
2023/07/31 04:17:07;;;;;;;4.22;1.52;;;;;;;13.19;99.45;99247.81;5047300;28;20030;-64
2023/07/31 04:19:33;;;;;;;2.90;1.52;;;;;;;13.26;99.93;99255.34;5047656;28;20022;-65
2023/07/31 04:21:58;;;;;;;3.63;1.25;;;;;;;13.31;99.62;99255.16;5047181;28;20032;-65
2023/07/31 04:24:26;;;;;;;2.65;1.50;;;;;;;13.33;99.23;99249.91;5029681;28;20057;-65
2023/07/31 04:26:52;;;;;;;2.55;1.42;;;;;;;13.38;99.09;99250.56;5047410;28;20025;-64
2023/07/31 04:29:18;;;;;;;5.10;1.67;;;;;;;13.34;99.11;99242.00;5047338;28;20032;-64
2023/07/31 04:31:44;;;;;;;2.40;1.67;;;;;;;13.34;99.15;99236.81;5046962;28;20026;-63
2023/07/31 04:34:09;;;;;;;3.03;1.80;;;;;;;13.18;98.96;99209.66;5047339;28;20116;-63
2023/07/31 04:36:35;;;;;;;1.98;1.33;;;;;;;13.34;99.18;99242.00;5047228;28;20029;-63
2023/07/31 04:39:01;;;;;;;10.68;1.73;;;;;;;13.37;99.41;99239.28;5047123;28;20028;-64
2023/07/31 04:41:27;;;;;;;12.32;2.85;;;;;;;13.36;99.37;99229.78;5045536;28;20040;-63
2023/07/31 04:43:52;;;;;;;3.40;1.80;;;;;;;13.41;99.29;99227.00;5047083;28;20104;-64
2023/07/31 04:46:18;;;;;;;2.63;1.27;;;;;;;13.47;99.31;99234.56;5047067;28;20021;-63
2023/07/31 04:48:43;;;;;;;2.28;1.67;;;;;;;13.53;99.36;99230.88;5047019;28;20017;-64
2023/07/31 04:51:09;;;;;;;4.85;1.83;;;;;;;13.59;99.74;99217.63;5046894;28;20025;-64
2023/07/31 04:53:35;;;;;;;3.72;1.88;;;;;;;13.68;99.83;99216.41;5029130;28;20033;-64
2023/07/31 04:56:00;;;;;;;2.08;1.20;;;;;;;13.86;99.00;99220.03;5046719;28;20085;-64
2023/07/31 04:58:26;;;;;;;2.78;1.10;;;;;;;13.96;98.91;99220.47;5046793;28;20064;-64
2023/07/31 05:00:51;;;;;;;1.83;1.10;;;;;;;14.12;99.09;99218.06;5046677;28;20029;-64
2023/07/31 05:03:17;;;;;;;6.30;1.70;;;;;;;14.34;99.32;99221.53;5046436;28;20563;-64
2023/07/31 05:05:42;;;;;;;1.52;1.15;;;;;;;14.54;99.75;99220.66;5046504;28;20025;-64
2023/07/31 05:08:07;;;;;;;4.15;1.85;;;;;;;14.61;99.31;99203.81;5046393;28;20045;-65
2023/07/31 05:10:33;;;;;;;7.22;1.77;;;;;;;14.75;98.52;99221.47;5046698;28;20079;-65
2023/07/31 05:12:58;;;;;;;3.40;1.75;;;;;;;14.63;96.56;99222.84;5046136;28;20455;-64
2023/07/31 05:15:24;;;;;;;2.55;1.85;;;;;;;14.43;96.88;99209.81;5046443;28;20030;-64
2023/07/31 05:17:49;;;;;;;7.93;1.45;;;;;;;14.43;96.47;99209.81;5045672;28;20429;-64
2023/07/31 05:20:15;;;;;;;4.35;1.73;;;;;;;14.34;96.23;99206.72;5045454;28;20029;-64
2023/07/31 05:22:40;;;;;;;3.10;1.45;;;;;;;14.46;97.45;99212.31;5046210;28;20433;-64
2023/07/31 05:25:06;;;;;;;3.78;1.50;;;;;;;14.76;97.51;99206.63;5046167;28;20025;-64
2023/07/31 05:27:32;;;;;;;2.00;1.58;;;;;;;14.96;95.69;99212.75;5046040;28;20025;-64
2023/07/31 05:29:58;;;;;;;1.95;1.30;;;;;;;15.00;95.58;99219.50;5046143;28;20045;-64
2023/07/31 05:32:23;;;;;;;5.13;1.90;;;;;;;15.03;93.49;99208.91;5045630;28;20079;-63
2023/07/31 05:34:52;;;;;;;17.27;1.92;;;;;;;15.00;94.16;99203.84;5046141;28;20052;-63
2023/07/31 05:37:17;;;;;;;2.47;1.20;;;;;;;15.19;94.16;99200.38;5045843;28;20116;-64
2023/07/31 05:39:43;;;;;;;4.55;1.80;;;;;;;15.33;93.37;99205.81;5045795;28;20093;-64
2023/07/31 05:42:08;;;;;;;1.48;1.25;;;;;;;15.37;91.05;99201.25;5045728;28;20033;-64
2023/07/31 05:44:34;;;;;;;5.78;1.25;;;;;;;15.35;90.58;99205.75;5045710;28;20029;-64
2023/07/31 05:46:59;;;;;;;2.40;1.63;;;;;;;15.24;90.86;99199.25;5045563;28;20025;-63
2023/07/31 05:49:25;;;;;;;1.38;1.10;;;;;;;15.18;90.98;99202.16;5027732;28;20017;-64
2023/07/31 05:51:50;;;;;;;1.75;0.98;;;;;;;15.40;91.87;99197.66;5045374;28;20025;-64
2023/07/31 05:54:15;;;;;;;4.50;1.30;;;;;;;15.96;91.62;99198.41;5045397;28;20025;-63
2023/07/31 05:56:41;;;;;;;1.83;1.35;;;;;;;16.79;90.92;99191.56;5045535;28;20025;-64
2023/07/31 05:59:09;;;;;;;2.58;1.25;;;;;;;17.27;82.34;99184.69;5045098;28;20276;-64
2023/07/31 06:01:34;;;;;;;3.83;1.50;;;;;;;17.42;82.60;99194.31;5043976;28;20085;-64
2023/07/31 06:03:59;;;;;;;3.10;1.48;;;;;;;17.65;80.19;99199.19;5044853;28;20021;-64
2023/07/31 06:06:25;;;;;;;1.20;1.05;;;;;;;17.79;80.07;99186.09;5045511;28;20025;-64
2023/07/31 06:08:50;;;;;;;2.95;1.20;;;;;;;17.73;76.76;99191.72;5045276;28;20028;-64
2023/07/31 06:11:16;;;;;;;1.30;0.98;;;;;;;17.39;77.54;99201.50;5045126;28;20025;-63
2023/07/31 06:13:41;;;;;;;2.45;1.40;;;;;;;17.26;78.62;99202.19;5045206;28;20528;-62
2023/07/31 06:16:07;;;;;;;2.95;1.27;;;;;;;17.14;77.61;99201.09;5045187;28;20037;-64
2023/07/31 06:18:32;;;;;;;0.93;0.88;;;;;;;16.87;77.81;99203.44;5045060;28;20104;-64
2023/07/31 06:20:58;;;;;;;0.80;0.80;;;;;;;16.64;78.18;99198.50;5045087;28;20032;-63
2023/07/31 06:23:23;;;;;;;1.98;1.73;;;;;;;16.53;77.81;99200.84;5045070;28;20025;-64
2023/07/31 06:25:49;;;;;;;3.58;1.17;;;;;;;16.18;78.86;99201.75;5045206;28;20083;-64
2023/07/31 06:28:14;;;;;;;1.90;1.00;;;;;;;16.06;78.87;99197.97;5045095;28;20461;-63
2023/07/31 06:30:40;;;;;;;1.70;1.35;;;;;;;15.80;80.16;99195.72;5044646;28;20036;-63
2023/07/31 06:33:05;;;;;;;2.38;1.65;;;;;;;15.66;80.47;99192.91;5027804;28;20525;-63
2023/07/31 06:35:30;;;;;;;1.17;0.98;;;;;;;15.52;81.39;99186.59;5045073;28;20021;-63
2023/07/31 06:37:56;;;;;;;1.95;1.25;;;;;;;15.44;82.00;99194.84;5044775;28;20429;-63
2023/07/31 06:40:22;;;;;;;1.73;0.90;;;;;;;15.25;82.79;99173.94;5044767;28;20025;-63
2023/07/31 06:42:48;;;;;;;4.80;1.90;;;;;;;15.21;83.24;99181.09;5045032;28;20029;-63
2023/07/31 06:45:13;;;;;;;2.25;1.23;;;;;;;15.20;83.08;99182.00;5044919;28;20413;-64
2023/07/31 06:47:39;;;;;;;1.35;0.82;;;;;;;15.16;83.28;99187.47;5044721;28;20045;-63
2023/07/31 06:50:05;;;;;;;1.33;1.00;;;;;;;15.04;83.84;99183.66;5044768;28;20068;-64
2023/07/31 06:52:30;;;;;;;4.68;2.25;;;;;;;14.95;84.73;99190.97;5044919;28;20021;-63
2023/07/31 06:55:18;;;;;;;2.53;1.90;;;;;;;14.89;85.17;99195.66;5044730;28;20083;-64
2023/07/31 06:57:44;;;;;;;7.95;1.42;;;;;;;14.78;85.88;99196.09;5044801;28;20056;-65
2023/07/31 07:00:10;;;;;;;4.38;0.95;;;;;;;14.75;86.09;99197.09;5044938;28;20327;-63
2023/07/31 07:02:35;;;;;;;3.88;1.60;;;;;;;14.60;86.96;99201.28;5044594;28;20030;-65
2023/07/31 07:05:01;;;;;;;4.32;1.17;;;;;;;14.50;87.40;99198.22;5044671;28;20090;-63
2023/07/31 07:07:26;;;;;;;3.65;2.75;;;;;;;14.35;88.10;99181.44;5044626;28;20034;-63
2023/07/31 07:09:52;;;;;;;5.97;1.80;;;;;;;14.39;88.72;99196.09;5044352;28;20029;-63
2023/07/31 07:12:17;;;;;;;3.13;1.42;;;;;;;14.35;89.03;99191.88;5044468;28;20037;-66
2023/07/31 07:14:43;;;;;;;6.35;1.50;;;;;;;14.29;89.76;99200.84;5044478;28;20037;-65
2023/07/31 07:17:08;;;;;;;9.68;1.50;;;;;;;14.22;90.38;99196.78;5044462;28;20122;-63
2023/07/31 07:19:34;;;;;;;3.45;1.75;;;;;;;14.16;91.31;99202.28;5044554;28;20024;-61
2023/07/31 07:22:01;;;;;;;5.78;1.42;;;;;;;14.12;91.92;99202.41;5044066;28;20040;-61
2023/07/31 07:24:27;;;;;;;3.92;1.58;;;;;;;14.07;92.23;99198.31;5044774;28;20089;-64
2023/07/31 07:26:52;;;;;;;12.25;1.30;;;;;;;14.06;92.62;99193.97;5044606;28;20041;-62
2023/07/31 07:29:18;;;;;;;2.67;1.00;;;;;;;14.05;92.49;99193.16;5027026;28;20172;-59
2023/07/31 07:31:43;;;;;;;1.33;1.13;;;;;;;13.97;93.18;99200.47;5044341;28;20033;-60
2023/07/31 07:34:08;;;;;;;4.30;1.30;;;;;;;13.90;93.89;99193.81;5044208;28;20031;-59
2023/07/31 07:36:34;;;;;;;2.88;1.20;;;;;;;13.89;94.36;99182.53;5044501;28;20136;-61
2023/07/31 07:38:59;;;;;;;2.13;0.70;;;;;;;13.90;94.52;99189.41;5044113;28;20040;-62
2023/07/31 07:41:24;;;;;;;1.45;1.02;;;;;;;13.87;94.83;99192.16;5044381;28;20112;-61
2023/07/31 07:43:51;;;;;;;2.58;1.80;;;;;;;13.77;95.41;99189.06;5047821;28;20025;-62
2023/07/31 07:46:16;;;;;;;0.85;0.65;;;;;;;13.85;95.46;99188.78;5047679;28;20048;-61
2023/07/31 07:48:42;;;;;;;2.53;1.23;;;;;;;13.88;95.12;99189.47;5047591;28;20067;-60
2023/07/31 07:51:07;;;;;;;2.60;1.20;;;;;;;13.84;95.18;99187.94;5047647;28;20075;-60
2023/07/31 07:53:32;;;;;;;2.28;1.67;;;;;;;13.90;94.37;99183.38;5047819;28;20446;-61
2023/07/31 07:55:58;;;;;;;1.63;1.20;;;;;;;13.82;95.45;99178.44;5047621;28;20026;-62
2023/07/31 07:58:23;;;;;;;2.15;1.25;;;;;;;13.79;94.30;99179.44;5047452;28;20077;-61
2023/07/31 08:00:52;;;;;;;2.53;0.82;;;;;;;13.76;94.78;99192.59;5047859;28;20025;-61
2023/07/31 08:03:17;;;;;;;2.72;0.93;;;;;;;13.70;93.66;99177.22;5047362;28;20021;-61
2023/07/31 08:05:43;;;;;;;2.30;1.15;;;;;;;13.61;93.80;99176.69;5047456;28;20029;-61
2023/07/31 08:08:15;;;;;;;1.65;0.90;;;;;;;13.70;92.82;99179.81;5047285;28;20025;-60
2023/07/31 08:10:40;;;;;;;3.33;1.35;;;;;;;13.68;93.19;99186.84;5047531;28;20021;-61
2023/07/31 08:13:06;;;;;;;6.38;1.52;;;;;;;13.67;93.37;99180.81;5046931;28;20057;-60
2023/07/31 08:15:31;;;;;;;0.98;0.85;;;;;;;13.80;93.16;99185.50;5047287;28;20026;-61
2023/07/31 08:17:57;;;;;;;4.15;1.40;;;;;;;13.77;93.39;99183.88;5046881;28;20458;-60
2023/07/31 08:20:22;;;;;;;3.80;1.38;;;;;;;13.86;93.66;99174.81;5047279;28;20021;-62
2023/07/31 08:22:48;;;;;;;6.75;1.33;;;;;;;13.86;94.13;99180.03;5047263;28;20041;-60
2023/07/31 08:25:14;;;;;;;4.40;1.05;;;;;;;13.89;94.48;99164.25;5047018;28;20030;-61
2023/07/31 08:27:43;;;;;;;2.20;1.27;;;;;;;14.05;93.83;99171.44;5046579;28;20097;-61
2023/07/31 08:30:09;;;;;;;2.60;1.33;;;;;;;14.05;92.52;99169.66;5046999;28;20044;-63
2023/07/31 08:32:34;;;;;;;2.42;0.88;;;;;;;14.01;92.93;99175.91;5047245;28;20055;-63
2023/07/31 08:35:00;;;;;;;1.85;0.90;;;;;;;14.06;91.38;99168.75;5047253;28;20017;-62
2023/07/31 08:37:25;;;;;;;1.40;1.00;;;;;;;13.95;91.77;99168.34;5047144;28;20029;-61
2023/07/31 08:39:51;;;;;;;2.40;0.75;;;;;;;13.88;92.57;99170.41;5046707;28;20081;-61
2023/07/31 08:42:16;;;;;;;5.20;0.70;;;;;;;13.88;93.32;99160.78;5046948;28;20029;-61
2023/07/31 08:44:43;;;;;;;2.40;0.88;;;;;;;13.87;92.89;99161.72;5046812;28;20024;-60
2023/07/31 08:47:10;;;;;;;0.63;0.63;;;;;;;13.97;92.24;99166.53;5046937;28;20390;-61
2023/07/31 08:49:37;;;;;;;0.70;0.70;;;;;;;13.99;91.03;99162.09;5046663;28;20022;-60
2023/07/31 08:52:03;;;;;;;8.35;1.45;;;;;;;13.98;91.11;99163.00;5046755;28;20037;-60
2023/07/31 08:54:30;;;;;;;3.60;0.73;;;;;;;14.02;90.90;99164.59;5046418;28;20537;-60
2023/07/31 08:56:57;;;;;;;2.15;0.98;;;;;;;14.12;89.60;99160.66;5046583;28;20089;-62
2023/07/31 08:59:24;;;;;;;2.70;0.73;;;;;;;14.20;88.73;99155.09;5046885;28;20134;-63
2023/07/31 09:01:54;;;;;;;0.75;0.50;;;;;;;14.12;89.58;99152.81;5046547;28;20021;-63
2023/07/31 09:04:21;;;;;;;5.05;1.05;;;;;;;14.21;90.07;99153.34;5046501;28;20080;-64
2023/07/31 09:06:48;;;;;;;4.55;0.93;;;;;;;14.30;89.04;99144.25;5046474;28;20024;-64
2023/07/31 09:09:13;;;;;;;0.93;0.60;;;;;;;14.35;90.34;99148.38;5046718;28;20048;-64
2023/07/31 09:11:39;;;;;;;1.73;0.95;;;;;;;14.60;89.32;99149.84;5046382;28;20029;-63
2023/07/31 09:14:08;;;;;;;1.33;0.63;;;;;;;14.64;89.27;99153.19;5046231;28;20041;-62
2023/07/31 09:16:34;;;;;;;3.13;0.93;;;;;;;14.83;86.46;99148.00;5046279;28;20478;-62
2023/07/31 09:19:01;;;;;;;0.40;0.40;;;;;;;14.84;85.58;99151.47;5046281;28;20063;-61
2023/07/31 09:21:27;;;;;;;3.13;0.50;;;;;;;14.68;87.83;99154.72;5046520;28;20100;-61
2023/07/31 09:23:56;;;;;;;1.58;0.55;;;;;;;14.79;88.55;99158.63;5046273;28;20029;-62
2023/07/31 09:26:36;;;;;;;2.15;0.73;;;;;;;15.08;86.85;99152.06;5046298;28;20025;-62
2023/07/31 09:29:05;;;;;;;1.00;0.77;;;;;;;15.02;86.99;99159.34;5046109;28;20100;-61
2023/07/31 09:31:42;;;;;;;0.85;0.65;;;;;;;15.08;86.95;99156.47;5046233;28;20167;-60
2023/07/31 09:34:07;;;;;;;0.40;0.40;;;;;;;15.18;85.44;99151.63;5046034;28;20029;-61
2023/07/31 09:36:39;;;;;;;0.80;0.60;;;;;;;15.14;84.99;99152.69;5046056;28;20026;-61
2023/07/31 09:39:04;;;;;;;2.17;0.77;;;;;;;15.03;84.58;99142.75;5045829;28;20467;-61
2023/07/31 09:41:31;;;;;;;0.32;0.32;;;;;;;15.10;83.21;99146.75;5045827;28;20098;-61
2023/07/31 09:43:56;;;;;;;1.92;1.75;;;;;;;14.97;83.80;99149.09;5046038;28;20021;-60
2023/07/31 09:46:22;;;;;;;0.85;0.47;;;;;;;14.88;85.28;99150.41;5045683;28;20052;-60
2023/07/31 09:48:48;;;;;;;9.50;1.10;;;;;;;14.94;85.66;99151.84;5045563;28;20024;-60
2023/07/31 09:51:13;;;;;;;1.10;0.60;;;;;;;15.01;84.56;99152.44;5045548;28;20040;-59
2023/07/31 09:53:38;;;;;;;1.58;0.43;;;;;;;15.11;84.17;99157.13;5045731;28;20029;-61
2023/07/31 09:56:04;;;;;;;0.43;0.38;;;;;;;14.98;83.70;99143.81;5045555;28;20033;-59
2023/07/31 09:58:34;;;;;;;3.92;0.70;;;;;;;15.08;82.97;99146.84;5045409;28;20101;-60
2023/07/31 10:01:01;;;;;;;6.25;0.80;;;;;;;14.95;84.14;99145.72;5044277;28;20018;-59
2023/07/31 10:03:29;;;;;;;2.42;0.75;;;;;;;14.96;84.29;99145.66;5044427;28;20085;-59
2023/07/31 10:05:56;;;;;;;0.40;0.40;;;;;;;14.93;84.71;99129.28;5044763;28;20052;-60
2023/07/31 10:08:30;;;;;;;2.13;0.90;;;;;;;15.07;85.02;99137.31;5045383;28;20041;-60
2023/07/31 10:11:00;;;;;;;1.77;0.60;;;;;;;15.13;83.71;99149.22;5045427;28;20036;-60
2023/07/31 10:13:28;;;;;;;0.55;0.47;;;;;;;15.10;83.93;99150.22;5045403;28;20068;-61
2023/07/31 10:15:54;;;;;;;0.60;0.50;;;;;;;15.02;84.84;99149.75;5045525;28;20060;-60
2023/07/31 10:18:20;;;;;;;4.78;0.63;;;;;;;15.06;85.30;99146.09;5045336;28;20017;-60
2023/07/31 10:20:47;;;;;;;0.57;0.45;;;;;;;15.23;84.58;99136.56;5045163;28;20073;-60
2023/07/31 10:23:13;;;;;;;1.45;0.75;;;;;;;15.32;84.12;99137.91;5045175;28;20026;-58
2023/07/31 10:25:38;;;;;;;0.60;0.60;;;;;;;15.53;82.89;99145.63;5045187;28;20056;-59
2023/07/31 10:28:04;;;;;;;2.58;0.73;;;;;;;15.48;83.21;99140.59;5045091;28;20029;-60
2023/07/31 10:30:32;;;;;;;0.95;0.52;;;;;;;15.67;82.93;99137.06;5045201;28;20106;-59
2023/07/31 10:32:58;;;;;;;1.85;0.93;;;;;;;15.67;83.19;99142.31;5045016;28;20033;-61
2023/07/31 10:35:24;;;;;;;2.78;0.60;;;;;;;15.74;81.34;99133.22;5045219;28;20021;-62
2023/07/31 10:37:50;;;;;;;1.33;0.88;;;;;;;15.68;81.77;99131.78;5045099;28;20025;-60
2023/07/31 10:40:23;;;;;;;3.00;1.25;;;;;;;15.75;82.21;99127.03;5045236;28;20025;-59
2023/07/31 10:42:50;;;;;;;4.13;0.73;;;;;;;15.96;82.23;99126.88;5045317;28;20025;-60
2023/07/31 10:45:37;;;;;;;1.85;0.60;;;;;;;16.33;80.51;99125.00;5044814;28;20039;-60
2023/07/31 10:48:04;;;;;;;1.25;0.77;;;;;;;16.57;80.02;99113.28;5044877;28;20033;-60
2023/07/31 10:50:34;;;;;;;0.70;0.50;;;;;;;16.68;77.45;99115.31;5045048;28;20033;-59
2023/07/31 10:53:00;;;;;;;0.68;0.57;;;;;;;16.68;76.83;99116.16;5044624;28;20030;-60
2023/07/31 10:55:32;;;;;;;2.90;0.57;;;;;;;16.82;77.99;99117.19;5045084;28;20028;-60
2023/07/31 10:58:08;;;;;;;2.38;0.50;;;;;;;16.93;76.18;99109.53;5044517;28;20018;-60
2023/07/31 11:00:37;;;;;;;3.30;0.63;;;;;;;16.98;76.84;99106.69;5044295;28;20155;-60
2023/07/31 11:03:10;;;;;;;0.75;0.73;;;;;;;17.15;78.00;99104.91;5044763;28;20032;-60
2023/07/31 11:05:53;;;;;;;1.73;0.65;;;;;;;17.43;75.78;99100.69;5045257;28;20036;-59
2023/07/31 11:08:23;;;;;;;2.22;0.55;;;;;;;17.63;73.71;99099.53;5044466;28;20477;-59
2023/07/31 11:11:04;;;;;;;0.40;0.40;;;;;;;17.87;73.53;99087.66;5044472;28;20036;-59
2023/07/31 11:13:30;;;;;;;0.85;0.60;;;;;;;18.19;73.29;99090.16;5044670;28;20050;-60
2023/07/31 11:15:56;;;;;;;0.60;0.40;;;;;;;18.20;71.91;99100.56;5045562;28;20034;-60
2023/07/31 11:18:22;;;;;;;0.50;0.40;;;;;;;18.16;71.57;99095.59;5048317;28;20044;-61
2023/07/31 11:20:47;;;;;;;0.30;0.28;;;;;;;18.05;69.13;99102.28;5048492;28;20021;-59
2023/07/31 11:23:16;;;;;;;2.85;0.52;;;;;;;17.81;70.09;99089.72;5048426;28;20363;-59
2023/07/31 11:25:42;;;;;;;1.58;0.40;;;;;;;18.01;69.35;99097.31;5047146;28;20030;-60
2023/07/31 11:28:10;;;;;;;1.08;0.70;;;;;;;17.95;67.95;99095.94;5048677;28;20040;-60
2023/07/31 11:30:35;;;;;;;0.82;0.60;;;;;;;17.95;68.99;99095.94;5048419;28;20034;-59